Time;durP1;ratioP1;P1;durP2;ratioP2;P2;SDS_P1;SDS_P2;PMS_P1;PMS_P2;Temp;Humidity;BMP_temperature;BMP_pressure;BME280_temperature;BME280_humidity;BME280_pressure;Samples;Min_cycle;Max_cycle;Signal;HPM_P1;HPM_P2
2023/09/18 00:00:26;;;;;;;54.38;45.25;;;16.60;99.90;;;;;;5097344;28;20048;-67
2023/09/18 00:02:52;;;;;;;59.92;45.75;;;16.50;99.90;;;;;;5097249;28;20055;-68
2023/09/18 00:05:18;;;;;;;56.40;46.05;;;16.60;99.90;;;;;;5096736;28;20020;-68
2023/09/18 00:07:44;;;;;;;60.05;47.50;;;16.50;99.90;;;;;;5097263;28;20032;-67
2023/09/18 00:10:11;;;;;;;59.95;47.45;;;16.50;99.90;;;;;;5096999;28;20069;-67
2023/09/18 00:12:38;;;;;;;61.58;48.05;;;16.40;99.90;;;;;;5096864;28;20028;-68
2023/09/18 00:15:05;;;;;;;56.70;46.42;;;16.30;99.90;;;;;;5096590;28;20531;-67
2023/09/18 00:17:31;;;;;;;60.00;49.22;;;16.40;99.90;;;;;;5097224;28;20036;-67
2023/09/18 00:19:57;;;;;;;62.65;49.50;;;16.30;99.90;;;;;;5096608;28;20043;-67
2023/09/18 00:22:24;;;;;;;60.70;50.63;;;16.20;99.90;;;;;;5096830;28;20088;-68
2023/09/18 00:24:50;;;;;;;59.45;50.92;;;16.20;99.90;;;;;;5096423;28;20058;-67
2023/09/18 00:27:16;;;;;;;65.22;49.78;;;16.20;99.90;;;;;;5097033;28;20024;-67
2023/09/18 00:29:42;;;;;;;61.65;50.88;;;16.30;99.90;;;;;;5096237;28;20061;-68
2023/09/18 00:32:08;;;;;;;62.28;52.80;;;16.20;99.90;;;;;;5096778;28;20481;-67
2023/09/18 00:34:34;;;;;;;63.53;52.10;;;16.20;99.90;;;;;;5096443;28;20024;-67
2023/09/18 00:37:00;;;;;;;67.07;55.22;;;16.10;99.90;;;;;;5078451;28;20088;-67
2023/09/18 00:39:27;;;;;;;62.97;52.88;;;16.10;99.90;;;;;;5095253;28;20385;-67
2023/09/18 00:41:54;;;;;;;65.88;53.70;;;16.10;99.90;;;;;;5096449;28;20118;-67
2023/09/18 00:44:22;;;;;;;63.42;51.13;;;16.10;99.90;;;;;;5096406;28;20027;-67
2023/09/18 00:46:49;;;;;;;59.17;51.03;;;16.20;99.90;;;;;;5096287;28;20418;-67
2023/09/18 00:49:18;;;;;;;61.95;50.92;;;16.20;99.90;;;;;;5096348;28;20533;-67
2023/09/18 00:51:44;;;;;;;60.80;50.53;;;16.20;99.90;;;;;;5077749;28;20382;-67
2023/09/18 00:54:11;;;;;;;60.75;52.05;;;16.20;99.90;;;;;;5077870;28;20031;-68
2023/09/18 00:56:37;;;;;;;59.92;52.35;;;16.10;99.90;;;;;;5095582;28;20438;-67
2023/09/18 00:59:04;;;;;;;65.22;54.55;;;16.10;99.90;;;;;;5077969;28;20401;-67
2023/09/18 01:01:32;;;;;;;64.32;53.85;;;16.00;99.90;;;;;;5077584;28;20031;-67
2023/09/18 01:03:58;;;;;;;61.33;51.53;;;16.00;99.90;;;;;;5096182;28;20389;-67
2023/09/18 01:06:30;;;;;;;63.42;54.45;;;16.00;99.90;;;;;;5095748;28;20025;-67
2023/09/18 01:08:56;;;;;;;62.75;53.22;;;16.00;99.90;;;;;;5096452;28;20055;-68
2023/09/18 01:11:57;;;;;;;65.72;54.65;;;16.00;99.90;;;;;;5095685;28;20367;-68
2023/09/18 01:14:56;;;;;;;66.88;55.05;;;16.00;99.90;;;;;;5077675;28;20028;-67
2023/09/18 01:17:23;;;;;;;64.30;54.97;;;16.00;99.90;;;;;;5095336;28;20051;-67
2023/09/18 01:19:49;;;;;;;65.88;54.65;;;16.10;99.90;;;;;;5095773;28;20031;-68
2023/09/18 01:22:17;;;;;;;66.53;54.67;;;16.10;99.90;;;;;;5095272;28;20103;-68
2023/09/18 01:24:45;;;;;;;63.85;54.15;;;16.00;99.90;;;;;;5077582;28;20074;-68
2023/09/18 01:27:16;;;;;;;61.53;53.35;;;16.00;99.90;;;;;;5076986;28;20020;-67
2023/09/18 01:29:48;;;;;;;67.70;56.95;;;16.00;99.90;;;;;;5095609;28;20024;-67
2023/09/18 01:32:15;;;;;;;67.10;54.15;;;16.00;99.90;;;;;;5095401;28;20028;-67
2023/09/18 01:34:52;;;;;;;66.72;55.17;;;16.00;99.90;;;;;;5095459;28;20028;-68
2023/09/18 01:37:22;;;;;;;68.63;56.35;;;15.90;99.90;;;;;;5095138;28;20028;-67
2023/09/18 01:39:50;;;;;;;61.80;52.67;;;16.10;99.90;;;;;;5095427;28;20119;-67
2023/09/18 01:42:17;;;;;;;65.50;54.63;;;16.10;99.90;;;;;;5094962;28;20424;-67
2023/09/18 01:44:44;;;;;;;63.45;54.30;;;16.10;99.90;;;;;;5095262;28;20107;-68
2023/09/18 01:47:17;;;;;;;68.47;55.10;;;16.00;99.90;;;;;;5076693;28;20032;-67
2023/09/18 01:49:43;;;;;;;64.50;53.95;;;16.00;99.90;;;;;;5095326;28;20028;-67
2023/09/18 01:52:10;;;;;;;69.35;55.40;;;16.00;99.90;;;;;;5094578;28;20409;-67
2023/09/18 01:54:36;;;;;;;65.10;55.35;;;16.10;99.90;;;;;;5078393;28;20028;-67
2023/09/18 01:57:03;;;;;;;61.78;52.03;;;16.00;99.90;;;;;;5070582;28;20063;-68
2023/09/18 01:59:30;;;;;;;61.38;53.38;;;16.00;99.90;;;;;;5076741;28;20059;-68
2023/09/18 02:01:56;;;;;;;62.03;51.05;;;16.00;99.90;;;;;;5094596;28;20028;-68
2023/09/18 02:04:23;;;;;;;66.05;52.42;;;15.90;99.90;;;;;;5095039;28;20028;-67
2023/09/18 02:06:50;;;;;;;62.38;53.13;;;16.00;99.90;;;;;;5094864;28;20432;-68
2023/09/18 02:09:16;;;;;;;61.40;52.28;;;16.00;99.90;;;;;;5094631;28;20081;-67
2023/09/18 02:11:44;;;;;;;57.85;50.13;;;15.90;99.90;;;;;;5076594;28;20466;-67
2023/09/18 02:14:10;;;;;;;62.05;52.67;;;15.90;99.90;;;;;;5076143;28;20020;-67
2023/09/18 02:16:40;;;;;;;61.03;51.05;;;16.00;99.90;;;;;;5094856;28;20020;-67
2023/09/18 02:19:11;;;;;;;59.58;50.60;;;16.00;99.90;;;;;;5094357;28;20019;-68
2023/09/18 02:21:37;;;;;;;61.05;52.28;;;16.00;99.90;;;;;;5076555;28;20050;-67
2023/09/18 02:24:05;;;;;;;59.65;51.35;;;15.90;99.90;;;;;;5094274;28;20024;-68
2023/09/18 02:26:31;;;;;;;59.95;51.25;;;15.90;99.90;;;;;;5094651;28;20492;-67
2023/09/18 02:29:02;;;;;;;62.08;53.10;;;15.90;99.90;;;;;;5094315;28;20298;-67
2023/09/18 02:31:30;;;;;;;62.05;51.20;;;15.90;99.90;;;;;;5094720;28;20099;-67
2023/09/18 02:33:56;;;;;;;63.13;53.38;;;15.90;99.90;;;;;;5094167;28;20424;-67
2023/09/18 02:36:21;;;;;;;63.28;52.65;;;15.90;99.90;;;;;;5094559;28;20034;-67
2023/09/18 02:38:48;;;;;;;60.50;51.17;;;16.00;99.90;;;;;;5094187;28;20035;-67
2023/09/18 02:41:14;;;;;;;64.18;54.78;;;16.00;99.90;;;;;;5076383;28;20032;-67
2023/09/18 02:43:40;;;;;;;65.18;55.05;;;16.00;99.90;;;;;;5094367;28;20487;-67
2023/09/18 02:46:07;;;;;;;73.07;60.10;;;16.00;99.90;;;;;;5094522;28;20469;-67
2023/09/18 02:48:33;;;;;;;73.43;61.70;;;15.90;99.90;;;;;;5094272;28;20028;-67
2023/09/18 02:51:00;;;;;;;76.97;64.55;;;15.90;99.90;;;;;;5095009;28;20032;-67
2023/09/18 02:53:27;;;;;;;85.57;74.63;;;15.90;99.90;;;;;;5087209;28;20024;-67
2023/09/18 02:55:56;;;;;;;94.47;80.03;;;15.90;99.90;;;;;;5060838;28;20027;-67
2023/09/18 02:58:25;;;;;;;101.00;84.72;;;15.90;99.90;;;;;;5076351;28;20044;-67
2023/09/18 03:00:57;;;;;;;92.68;77.38;;;15.80;99.90;;;;;;5075720;28;20130;-67
2023/09/18 03:03:23;;;;;;;87.78;73.05;;;15.80;99.90;;;;;;5078391;28;20040;-67
2023/09/18 03:05:49;;;;;;;81.95;67.25;;;15.80;99.90;;;;;;5097925;28;20031;-67
2023/09/18 03:08:16;;;;;;;73.28;60.17;;;15.80;99.90;;;;;;5098327;28;20103;-67
2023/09/18 03:10:43;;;;;;;66.97;55.28;;;15.80;99.90;;;;;;5079726;28;20039;-67
2023/09/18 03:13:11;;;;;;;66.82;54.63;;;15.80;99.90;;;;;;5079948;28;20036;-67
2023/09/18 03:15:37;;;;;;;61.70;52.33;;;15.80;99.90;;;;;;5079608;28;20024;-67
2023/09/18 03:18:05;;;;;;;62.38;52.22;;;15.80;99.90;;;;;;5079935;28;20389;-67
2023/09/18 03:20:31;;;;;;;59.10;50.30;;;15.80;99.90;;;;;;5079464;28;20032;-67
2023/09/18 03:23:01;;;;;;;59.60;51.70;;;15.70;99.90;;;;;;5080098;28;20077;-67
2023/09/18 03:25:27;;;;;;;60.97;51.58;;;15.70;99.90;;;;;;5097605;28;20428;-67
2023/09/18 03:27:55;;;;;;;55.72;49.63;;;15.70;99.90;;;;;;5097912;28;20121;-67
2023/09/18 03:30:24;;;;;;;59.72;49.42;;;15.70;99.90;;;;;;5079276;28;20111;-67
2023/09/18 03:32:51;;;;;;;56.88;48.85;;;15.70;99.90;;;;;;5079747;28;20044;-67
2023/09/18 03:35:19;;;;;;;61.47;50.28;;;15.70;99.90;;;;;;5096308;28;20054;-67
2023/09/18 03:37:47;;;;;;;61.75;49.92;;;15.60;99.90;;;;;;5079539;28;20032;-67
2023/09/18 03:40:13;;;;;;;58.35;49.72;;;15.60;99.90;;;;;;5079255;28;20032;-68
2023/09/18 03:42:39;;;;;;;59.00;51.17;;;15.60;99.90;;;;;;5079347;28;20447;-67
2023/09/18 03:45:07;;;;;;;57.40;49.10;;;15.60;99.90;;;;;;5079016;28;20024;-67
2023/09/18 03:47:40;;;;;;;58.90;49.42;;;15.50;99.90;;;;;;5079396;28;20027;-67
2023/09/18 03:50:07;;;;;;;60.75;49.00;;;15.50;99.90;;;;;;5079301;28;20378;-67
2023/09/18 03:52:33;;;;;;;59.63;47.75;;;15.50;99.90;;;;;;5078912;28;20035;-67
2023/09/18 03:55:00;;;;;;;65.80;50.22;;;15.50;99.90;;;;;;5059469;28;20040;-67
2023/09/18 03:57:26;;;;;;;60.85;49.05;;;15.50;99.90;;;;;;5094297;28;20031;-68
2023/09/18 03:59:52;;;;;;;56.90;47.65;;;15.50;99.90;;;;;;5097198;28;20563;-67
2023/09/18 04:02:18;;;;;;;54.38;48.45;;;15.30;99.90;;;;;;5078646;28;20097;-67
2023/09/18 04:04:44;;;;;;;58.88;49.92;;;15.30;99.90;;;;;;5097341;28;20024;-67
2023/09/18 04:07:11;;;;;;;55.92;48.70;;;15.20;99.90;;;;;;5096797;28;20408;-67
2023/09/18 04:09:37;;;;;;;60.85;49.22;;;15.20;99.90;;;;;;5078950;28;20019;-67
2023/09/18 04:12:07;;;;;;;58.38;48.42;;;15.20;99.90;;;;;;5096687;28;20027;-67
2023/09/18 04:14:33;;;;;;;58.40;47.58;;;15.20;99.90;;;;;;5095638;28;20470;-67
2023/09/18 04:17:02;;;;;;;54.55;45.60;;;15.10;99.90;;;;;;5096647;28;20467;-67
2023/09/18 04:19:29;;;;;;;60.00;47.70;;;15.10;99.90;;;;;;5097024;28;20028;-68
2023/09/18 04:21:55;;;;;;;55.83;46.67;;;15.10;99.90;;;;;;5096501;28;20060;-67
2023/09/18 04:24:21;;;;;;;56.58;48.10;;;15.00;99.90;;;;;;5078567;28;20031;-67
2023/09/18 04:26:50;;;;;;;60.00;48.78;;;15.00;99.90;;;;;;5078320;28;20024;-67
2023/09/18 04:29:17;;;;;;;55.75;47.95;;;15.00;99.90;;;;;;5096643;28;20424;-67
2023/09/18 04:31:43;;;;;;;58.67;47.58;;;15.00;99.90;;;;;;5096527;28;20099;-68
2023/09/18 04:34:10;;;;;;;56.78;47.40;;;15.00;99.90;;;;;;5078533;28;20111;-67
2023/09/18 04:36:37;;;;;;;60.35;47.83;;;15.00;99.90;;;;;;5078307;28;20024;-67
2023/09/18 04:39:06;;;;;;;55.78;46.05;;;15.10;99.90;;;;;;5078330;28;20316;-67
2023/09/18 04:41:33;;;;;;;54.55;47.13;;;15.00;99.90;;;;;;5078599;28;20035;-67
2023/09/18 04:44:02;;;;;;;63.15;49.15;;;15.00;99.90;;;;;;5077851;28;20089;-67
2023/09/18 04:46:29;;;;;;;62.72;49.83;;;15.00;99.90;;;;;;5078387;28;20032;-67
2023/09/18 04:48:56;;;;;;;58.35;49.20;;;15.00;99.90;;;;;;5077714;28;20028;-67
2023/09/18 04:51:22;;;;;;;58.63;49.50;;;15.00;99.90;;;;;;5078152;28;20105;-67
2023/09/18 04:53:48;;;;;;;61.90;50.85;;;15.10;99.90;;;;;;5077466;28;20453;-67
2023/09/18 04:56:14;;;;;;;60.17;49.67;;;15.10;99.90;;;;;;5096047;28;20175;-67
2023/09/18 04:58:40;;;;;;;63.05;50.92;;;15.10;99.90;;;;;;5077532;28;20028;-67
2023/09/18 05:01:06;;;;;;;59.58;49.13;;;15.20;99.90;;;;;;5077940;28;20481;-67
2023/09/18 05:03:36;;;;;;;59.95;48.25;;;15.20;99.90;;;;;;5077310;28;20051;-67
2023/09/18 05:06:05;;;;;;;64.07;50.65;;;15.30;99.90;;;;;;5077752;28;20035;-67
2023/09/18 05:08:31;;;;;;;63.00;50.70;;;15.30;99.90;;;;;;5095711;28;20485;-67
2023/09/18 05:10:57;;;;;;;61.30;50.58;;;15.40;99.90;;;;;;5095854;28;20035;-67
2023/09/18 05:13:23;;;;;;;68.15;51.78;;;15.50;99.90;;;;;;5095464;28;20036;-67
2023/09/18 05:15:49;;;;;;;70.18;49.47;;;15.60;99.90;;;;;;5095324;28;20035;-67
2023/09/18 05:18:16;;;;;;;65.63;51.47;;;15.80;99.90;;;;;;5096161;28;20032;-67
2023/09/18 05:20:42;;;;;;;74.43;53.50;;;15.90;99.90;;;;;;5096358;28;20090;-67
2023/09/18 05:23:08;;;;;;;65.25;51.63;;;15.80;99.90;;;;;;5096114;28;20085;-67
2023/09/18 05:25:37;;;;;;;65.85;51.38;;;16.00;99.90;;;;;;5095940;28;20032;-67
2023/09/18 05:28:05;;;;;;;63.97;48.95;;;16.00;99.90;;;;;;5095847;28;20027;-67
2023/09/18 05:30:38;;;;;;;63.17;49.28;;;16.20;99.90;;;;;;5095343;28;20481;-67
2023/09/18 05:33:08;;;;;;;65.53;48.33;;;16.40;99.90;;;;;;5095543;28;20363;-67
2023/09/18 05:35:36;;;;;;;78.65;49.63;;;16.40;99.90;;;;;;5091710;28;20028;-67
2023/09/18 05:38:03;;;;;;;80.43;51.13;;;16.60;99.90;;;;;;5094321;28;20598;-67
2023/09/18 05:40:29;;;;;;;90.75;51.30;;;16.80;99.90;;;;;;5095054;28;20042;-67
2023/09/18 05:42:56;;;;;;;99.15;50.42;;;16.90;99.90;;;;;;5094915;28;20465;-68
2023/09/18 05:45:22;;;;;;;95.65;52.97;;;16.90;99.90;;;;;;5094801;28;20024;-67
2023/09/18 05:47:50;;;;;;;86.63;51.42;;;17.00;99.90;;;;;;5095389;28;20048;-67
2023/09/18 05:50:16;;;;;;;82.80;48.60;;;17.10;99.90;;;;;;5094610;28;20020;-67
2023/09/18 05:52:44;;;;;;;91.20;52.92;;;17.00;99.90;;;;;;5095016;28;20469;-68
2023/09/18 05:55:10;;;;;;;81.50;50.22;;;17.00;99.90;;;;;;5094824;28;20160;-68
2023/09/18 05:57:37;;;;;;;75.38;48.38;;;17.10;99.90;;;;;;5094788;28;20032;-68
2023/09/18 06:00:04;;;;;;;81.47;48.10;;;17.30;99.90;;;;;;5094508;28;20165;-67
2023/09/18 06:02:37;;;;;;;67.45;46.58;;;17.50;99.90;;;;;;5094862;28;20207;-68
2023/09/18 06:05:05;;;;;;;65.15;46.75;;;17.70;99.90;;;;;;5094385;28;20116;-67
2023/09/18 06:07:33;;;;;;;61.72;43.38;;;17.90;99.90;;;;;;5094749;28;20067;-68
2023/09/18 06:09:59;;;;;;;50.15;40.65;;;18.10;99.90;;;;;;5094445;28;20241;-68
2023/09/18 06:12:25;;;;;;;55.28;42.17;;;18.30;99.90;;;;;;5094673;28;20024;-67
2023/09/18 06:14:51;;;;;;;50.60;40.88;;;18.60;99.90;;;;;;5094300;28;20047;-68
2023/09/18 06:17:17;;;;;;;50.88;40.35;;;18.90;99.90;;;;;;5094888;28;20024;-68
2023/09/18 06:19:45;;;;;;;52.50;41.42;;;19.10;99.90;;;;;;5094458;28;20032;-68
2023/09/18 06:22:12;;;;;;;52.35;41.00;;;18.90;99.90;;;;;;5112301;28;20027;-68
2023/09/18 06:24:38;;;;;;;53.95;40.90;;;19.10;99.90;;;;;;5114908;28;20385;-67
2023/09/18 06:27:05;;;;;;;56.70;40.15;;;19.40;99.90;;;;;;5098316;28;20031;-68
2023/09/18 06:29:44;;;;;;;48.47;39.63;;;19.70;99.90;;;;;;5074475;28;20481;-68
2023/09/18 06:32:18;;;;;;;54.55;40.75;;;20.20;99.90;;;;;;5093862;28;20027;-68
2023/09/18 06:34:53;;;;;;;52.97;40.70;;;20.60;99.90;;;;;;5094321;28;20032;-68
2023/09/18 06:37:20;;;;;;;58.40;40.80;;;20.70;99.90;;;;;;5091300;28;20468;-68
2023/09/18 06:39:46;;;;;;;57.80;38.80;;;21.10;99.90;;;;;;5094233;28;20031;-68
2023/09/18 06:42:12;;;;;;;51.40;37.35;;;21.50;99.90;;;;;;5111454;28;20023;-68
2023/09/18 06:44:38;;;;;;;43.67;36.45;;;21.50;99.90;;;;;;5112753;28;20526;-68
2023/09/18 06:47:04;;;;;;;52.20;35.67;;;21.70;99.90;;;;;;5113564;28;20027;-68
2023/09/18 06:49:30;;;;;;;49.22;33.67;;;22.10;99.70;;;;;;5113967;28;20028;-68
2023/09/18 06:51:56;;;;;;;45.45;31.83;;;22.40;97.60;;;;;;5114559;28;20040;-68
2023/09/18 06:54:22;;;;;;;43.53;30.88;;;22.60;97.80;;;;;;5100103;28;20028;-68
2023/09/18 06:56:48;;;;;;;37.58;28.55;;;23.00;95.60;;;;;;5094423;28;20034;-68
2023/09/18 06:59:14;;;;;;;40.70;29.23;;;23.60;95.30;;;;;;5094678;28;20098;-68
2023/09/18 07:01:42;;;;;;;43.65;27.30;;;23.60;94.50;;;;;;5094573;28;20099;-68
2023/09/18 07:04:08;;;;;;;43.22;28.48;;;24.10;93.60;;;;;;5094294;28;20518;-68
2023/09/18 07:06:34;;;;;;;35.60;25.73;;;24.60;92.00;;;;;;5094555;28;20031;-68
2023/09/18 07:09:01;;;;;;;33.13;26.00;;;24.80;91.20;;;;;;5093957;28;20378;-68
2023/09/18 07:11:27;;;;;;;34.35;25.65;;;25.30;91.20;;;;;;5093536;28;20156;-68
2023/09/18 07:13:53;;;;;;;42.55;25.50;;;25.20;86.60;;;;;;5093711;28;20073;-68
2023/09/18 07:16:19;;;;;;;37.58;25.05;;;25.60;85.40;;;;;;5093994;28;20032;-68
2023/09/18 07:18:45;;;;;;;33.20;26.15;;;26.10;83.10;;;;;;5093565;28;20032;-69
2023/09/18 07:21:11;;;;;;;46.63;25.45;;;26.30;78.80;;;;;;5075640;28;20111;-69
2023/09/18 07:23:40;;;;;;;31.45;22.38;;;26.50;78.80;;;;;;5092612;28;20024;-69
2023/09/18 07:26:06;;;;;;;30.00;21.13;;;26.40;77.80;;;;;;5094357;28;20028;-69
2023/09/18 07:28:32;;;;;;;27.67;21.35;;;26.70;74.80;;;;;;5094163;28;20057;-69
2023/09/18 07:31:05;;;;;;;35.28;23.42;;;27.10;74.10;;;;;;5094625;28;20070;-69
2023/09/18 07:33:31;;;;;;;47.60;22.05;;;26.90;73.40;;;;;;5094054;28;20032;-69
2023/09/18 07:35:57;;;;;;;20.35;17.73;;;27.30;73.50;;;;;;5094104;28;20111;-69
2023/09/18 07:38:24;;;;;;;26.27;18.77;;;27.60;70.70;;;;;;5094221;28;20335;-69
2023/09/18 07:40:50;;;;;;;27.85;17.90;;;28.00;68.60;;;;;;5094364;28;20020;-69
2023/09/18 07:43:16;;;;;;;26.88;19.45;;;28.30;67.80;;;;;;5094270;28;20477;-69
2023/09/18 07:45:45;;;;;;;28.65;20.20;;;28.60;68.30;;;;;;5094891;28;20039;-69
2023/09/18 07:48:11;;;;;;;32.85;19.42;;;28.90;64.30;;;;;;5094269;28;20020;-69
2023/09/18 07:50:40;;;;;;;25.75;18.33;;;29.00;63.10;;;;;;5097082;28;20066;-69
2023/09/18 07:53:06;;;;;;;24.08;17.80;;;29.20;61.30;;;;;;5096621;28;20477;-69
2023/09/18 07:55:32;;;;;;;24.92;18.05;;;29.00;62.80;;;;;;5096932;28;20107;-69
2023/09/18 07:57:59;;;;;;;24.38;18.02;;;29.10;62.50;;;;;;5097246;28;20051;-70
2023/09/18 08:00:26;;;;;;;26.50;17.10;;;28.50;62.00;;;;;;5096867;28;20531;-69
2023/09/18 08:02:58;;;;;;;22.95;16.40;;;29.10;61.40;;;;;;5096968;28;20113;-69
2023/09/18 08:05:27;;;;;;;23.80;15.02;;;29.20;57.70;;;;;;5096801;28;20024;-70
2023/09/18 08:07:56;;;;;;;34.83;16.67;;;29.90;57.40;;;;;;5096151;28;20016;-70
2023/09/18 08:10:23;;;;;;;25.25;14.85;;;30.40;57.70;;;;;;5096438;28;20147;-70
2023/09/18 08:12:51;;;;;;;19.42;13.95;;;30.80;55.10;;;;;;5097075;28;20035;-70
2023/09/18 08:15:17;;;;;;;20.20;13.70;;;31.00;52.20;;;;;;5096495;28;20052;-70
2023/09/18 08:17:43;;;;;;;18.13;12.57;;;30.90;52.00;;;;;;5096046;28;20103;-70
2023/09/18 08:20:13;;;;;;;17.58;12.23;;;31.60;52.60;;;;;;5096676;28;20142;-70
2023/09/18 08:22:40;;;;;;;23.85;12.48;;;31.90;49.10;;;;;;5096661;28;20032;-70
2023/09/18 08:25:10;;;;;;;30.73;14.25;;;32.20;50.70;;;;;;5096112;28;20477;-70
2023/09/18 08:27:41;;;;;;;29.17;14.05;;;31.70;49.70;;;;;;5096651;28;20024;-70
2023/09/18 08:30:10;;;;;;;18.60;13.88;;;31.70;49.20;;;;;;5095977;28;20031;-71
2023/09/18 08:32:37;;;;;;;25.40;13.35;;;31.80;49.70;;;;;;5096656;28;20053;-71
2023/09/18 08:35:05;;;;;;;19.85;12.85;;;32.10;48.20;;;;;;5096295;28;20107;-70
2023/09/18 08:37:31;;;;;;;15.48;11.13;;;32.40;47.20;;;;;;5096482;28;20024;-70
2023/09/18 08:39:59;;;;;;;19.77;12.02;;;32.20;46.00;;;;;;5095992;28;20435;-68
2023/09/18 08:42:28;;;;;;;29.92;14.40;;;32.20;45.10;;;;;;5095811;28;20473;-69
2023/09/18 08:44:58;;;;;;;25.20;11.85;;;32.10;45.10;;;;;;5095658;28;20435;-69
2023/09/18 08:47:24;;;;;;;15.55;11.20;;;32.50;46.20;;;;;;5096096;28;20382;-69
2023/09/18 08:49:52;;;;;;;15.82;12.00;;;32.60;43.80;;;;;;5095692;28;20024;-69
2023/09/18 08:52:19;;;;;;;20.08;12.32;;;32.30;43.70;;;;;;5096337;28;20089;-69
2023/09/18 08:54:46;;;;;;;24.27;12.82;;;32.50;46.10;;;;;;5095265;28;20016;-69
2023/09/18 08:57:12;;;;;;;28.38;12.25;;;32.80;42.00;;;;;;5095779;28;20028;-69
2023/09/18 08:59:40;;;;;;;14.10;11.45;;;33.20;42.80;;;;;;5095302;28;20054;-69
2023/09/18 09:02:11;;;;;;;16.63;12.15;;;32.70;41.10;;;;;;5094819;28;20040;-69
2023/09/18 09:04:38;;;;;;;18.35;11.75;;;33.00;41.20;;;;;;5095886;28;20377;-69
2023/09/18 09:07:05;;;;;;;22.17;11.52;;;33.40;41.10;;;;;;5095157;28;20032;-69
2023/09/18 09:09:31;;;;;;;17.27;10.82;;;33.50;39.00;;;;;;5095550;28;20021;-69
2023/09/18 09:12:02;;;;;;;16.85;11.77;;;33.90;40.10;;;;;;5095369;28;20453;-69
2023/09/18 09:14:31;;;;;;;18.63;10.77;;;33.60;39.40;;;;;;5095011;28;20088;-69
2023/09/18 09:17:00;;;;;;;19.45;10.38;;;33.80;38.90;;;;;;5094151;28;20055;-69
2023/09/18 09:19:38;;;;;;;13.85;9.68;;;33.80;38.10;;;;;;5095147;28;20043;-69
2023/09/18 09:22:05;;;;;;;18.88;9.95;;;33.90;38.70;;;;;;5094175;28;20090;-70
2023/09/18 09:24:43;;;;;;;19.27;10.65;;;34.00;38.40;;;;;;5095565;28;20020;-69
2023/09/18 09:27:10;;;;;;;17.58;10.43;;;34.40;38.20;;;;;;5091785;28;20020;-70
2023/09/18 09:29:36;;;;;;;15.57;9.73;;;34.60;36.00;;;;;;5094266;28;20052;-69
2023/09/18 09:32:16;;;;;;;11.40;9.38;;;34.40;36.60;;;;;;5093244;28;20039;-69
2023/09/18 09:34:43;;;;;;;18.20;10.23;;;34.70;36.20;;;;;;5094865;28;20016;-69
2023/09/18 09:37:10;;;;;;;18.10;10.57;;;34.80;35.00;;;;;;5094929;28;20078;-69
2023/09/18 09:39:49;;;;;;;18.00;10.75;;;34.70;35.30;;;;;;5094589;28;20020;-70
2023/09/18 09:42:23;;;;;;;19.00;11.73;;;35.20;34.80;;;;;;5094475;28;20378;-69
2023/09/18 09:45:00;;;;;;;18.60;11.85;;;35.40;33.20;;;;;;5095634;28;20473;-68
2023/09/18 09:47:26;;;;;;;20.55;12.27;;;35.80;33.70;;;;;;5095523;28;20342;-69
2023/09/18 09:49:54;;;;;;;21.67;11.48;;;35.60;32.60;;;;;;5095869;28;20158;-69
2023/09/18 09:52:21;;;;;;;17.60;10.20;;;35.50;33.10;;;;;;5095078;28;20032;-69
2023/09/18 09:54:47;;;;;;;14.23;9.13;;;35.70;30.90;;;;;;5094583;28;20457;-69
2023/09/18 09:57:13;;;;;;;13.38;9.57;;;35.20;32.40;;;;;;5094568;28;20039;-69
2023/09/18 09:59:44;;;;;;;14.80;9.02;;;36.00;30.80;;;;;;5093574;28;20054;-69
2023/09/18 10:02:14;;;;;;;13.63;8.07;;;36.50;29.70;;;;;;5094322;28;20089;-69
2023/09/18 10:04:43;;;;;;;12.55;8.18;;;36.20;30.10;;;;;;5094462;28;20032;-69
2023/09/18 10:07:10;;;;;;;15.35;7.97;;;36.60;30.20;;;;;;5093887;28;20561;-70
2023/09/18 10:09:41;;;;;;;11.23;8.27;;;36.20;28.70;;;;;;5094225;28;20026;-69
2023/09/18 10:12:15;;;;;;;14.85;8.15;;;36.60;29.90;;;;;;5093998;28;20458;-69
2023/09/18 10:14:45;;;;;;;15.25;9.13;;;36.80;27.50;;;;;;5094205;28;20020;-69
2023/09/18 10:17:19;;;;;;;20.83;8.35;;;35.80;29.50;;;;;;5094110;28;20557;-70
2023/09/18 10:20:20;;;;;;;11.85;7.07;;;36.10;27.00;;;;;;5094515;28;20035;-69
2023/09/18 10:22:51;;;;;;;11.88;7.25;;;35.60;28.20;;;;;;5075881;28;20062;-69
2023/09/18 10:25:31;;;;;;;13.45;6.95;;;36.30;26.80;;;;;;5094667;28;20354;-70
2023/09/18 10:27:58;;;;;;;16.30;6.80;;;35.20;27.90;;;;;;5093750;28;20028;-69
2023/09/18 10:30:25;;;;;;;10.70;6.25;;;34.90;29.40;;;;;;5094043;28;20093;-69
2023/09/18 10:32:51;;;;;;;12.68;6.72;;;35.60;28.10;;;;;;5094456;28;20032;-69
2023/09/18 10:35:19;;;;;;;10.60;6.15;;;35.70;27.00;;;;;;5095178;28;20063;-69
2023/09/18 10:37:47;;;;;;;8.95;5.97;;;35.80;27.30;;;;;;5094459;28;20051;-70
2023/09/18 10:40:13;;;;;;;9.40;5.40;;;34.70;27.30;;;;;;5094039;28;20028;-70
2023/09/18 10:42:41;;;;;;;10.65;5.95;;;33.90;27.20;;;;;;5094267;28;20031;-70
2023/09/18 10:45:11;;;;;;;13.35;5.90;;;34.50;27.90;;;;;;5093156;28;20047;-69
2023/09/18 10:47:40;;;;;;;11.82;6.20;;;34.80;27.90;;;;;;5093151;28;20027;-69
2023/09/18 10:50:08;;;;;;;7.53;5.95;;;35.60;27.70;;;;;;5092437;28;20117;-70
2023/09/18 10:52:44;;;;;;;8.60;6.90;;;34.70;27.90;;;;;;5092942;28;20161;-69
2023/09/18 10:55:14;;;;;;;12.52;6.57;;;34.70;28.50;;;;;;5092316;28;20032;-70
2023/09/18 10:58:06;;;;;;;11.18;6.60;;;35.70;28.10;;;;;;5094145;28;20125;-69
2023/09/18 11:00:36;;;;;;;10.20;6.47;;;36.40;27.20;;;;;;5090802;28;20140;-69
2023/09/18 11:03:17;;;;;;;8.70;5.75;;;36.00;26.40;;;;;;5093839;28;20028;-69
2023/09/18 11:05:45;;;;;;;16.75;7.68;;;35.80;25.80;;;;;;5093788;28;20062;-69
2023/09/18 11:08:55;;;;;;;9.18;5.78;;;36.30;26.60;;;;;;5093905;28;20099;-69
2023/09/18 11:11:21;;;;;;;11.82;5.88;;;36.50;25.60;;;;;;5070095;28;20070;-69
2023/09/18 11:13:50;;;;;;;10.40;6.47;;;36.60;26.00;;;;;;5093803;28;20378;-69
2023/09/18 11:16:42;;;;;;;14.35;7.72;;;36.60;26.20;;;;;;5093010;28;20473;-69
2023/09/18 11:19:13;;;;;;;15.68;6.95;;;36.70;26.20;;;;;;5090847;28;20287;-69
2023/09/18 11:21:40;;;;;;;12.38;7.35;;;36.50;26.00;;;;;;5093303;28;20113;-69
2023/09/18 11:24:11;;;;;;;12.90;7.00;;;36.90;27.30;;;;;;5095569;28;20024;-69
2023/09/18 11:26:41;;;;;;;7.63;5.85;;;37.00;25.40;;;;;;5097592;28;20174;-69
2023/09/18 11:29:10;;;;;;;13.80;6.50;;;36.00;25.60;;;;;;5097726;28;20024;-69
2023/09/18 11:31:51;;;;;;;9.32;6.45;;;36.50;26.40;;;;;;5097205;28;20046;-69
2023/09/18 11:34:22;;;;;;;20.83;8.68;;;37.00;26.30;;;;;;5097303;28;20039;-69
2023/09/18 11:36:49;;;;;;;15.48;7.50;;;36.30;25.80;;;;;;5097303;28;20028;-69
2023/09/18 11:39:37;;;;;;;12.30;6.03;;;36.70;25.60;;;;;;5097452;28;20485;-69
2023/09/18 11:42:17;;;;;;;9.07;6.10;;;37.20;23.80;;;;;;5097042;28;20050;-69
2023/09/18 11:44:46;;;;;;;11.52;5.97;;;36.80;24.60;;;;;;5097370;28;20038;-70
2023/09/18 11:47:21;;;;;;;10.17;7.00;;;36.80;25.70;;;;;;5097116;28;20103;-70
2023/09/18 11:49:56;;;;;;;10.52;6.13;;;36.90;24.60;;;;;;5097420;28;20062;-69
2023/09/18 11:52:27;;;;;;;14.80;6.95;;;37.40;23.60;;;;;;5096825;28;20485;-69
2023/09/18 11:54:55;;;;;;;13.52;7.22;;;37.60;23.70;;;;;;5097211;28;20053;-69
2023/09/18 11:57:21;;;;;;;18.95;7.13;;;37.50;23.80;;;;;;5096844;28;20496;-70
2023/09/18 11:59:47;;;;;;;15.23;6.68;;;37.70;23.70;;;;;;5097059;28;20056;-70
2023/09/18 12:02:27;;;;;;;11.43;6.57;;;37.00;23.00;;;;;;5096753;28;20086;-70
2023/09/18 12:04:54;;;;;;;12.27;6.55;;;35.90;24.70;;;;;;5097118;28;20039;-69
2023/09/18 12:07:20;;;;;;;12.35;6.82;;;36.30;25.30;;;;;;5096685;28;20028;-70
2023/09/18 12:09:46;;;;;;;11.02;6.35;;;35.80;25.10;;;;;;5096960;28;20069;-69
2023/09/18 12:12:15;;;;;;;16.02;6.25;;;36.20;24.80;;;;;;5096669;28;20024;-69
2023/09/18 12:14:42;;;;;;;10.35;6.65;;;35.80;24.50;;;;;;5096588;28;20035;-70
2023/09/18 12:17:08;;;;;;;15.10;7.40;;;35.90;24.80;;;;;;5096456;28;20035;-69
2023/09/18 12:19:35;;;;;;;8.88;5.90;;;36.50;24.50;;;;;;5097078;28;20055;-69
2023/09/18 12:22:02;;;;;;;11.02;6.53;;;36.40;24.00;;;;;;5096239;28;20027;-70
2023/09/18 12:24:28;;;;;;;13.63;7.05;;;36.60;24.80;;;;;;5107580;28;20020;-69
2023/09/18 12:26:54;;;;;;;13.93;6.43;;;36.90;23.70;;;;;;5113634;28;20473;-69
2023/09/18 12:29:21;;;;;;;23.52;8.27;;;37.10;24.00;;;;;;5096110;28;20042;-69
2023/09/18 12:31:47;;;;;;;25.02;10.32;;;37.30;25.40;;;;;;5096589;28;20024;-69
2023/09/18 12:41:48;;;;;;;16.02;7.28;;;37.20;23.40;;;;;;5095245;28;20039;-68